Aérodrome :
LOGIN :

S'inscrire | Disclaimer

   EN    FR    IT 

 










Légende :    VFR   VFR Marginal   IFR   IFR Intensif   IFR Très Intensif
Visi : 
Plafond : 
>= 8 km
>= 3000ft
5 à 8 km
1000 à 3000 ft
1500m à 5 km
500 à 1000 ft
800 à 1500m
200 à 500 ft
< 800m
< 200 ft
Symboles :   Orages  Brouillard  Fortes neiges  Fortes précipitations  Vent > 20 kt
SIGMETs :   Divers  Orages  Givrage  Turbulence  Onde Orograph.  Cendres Volcan.







- Altitude de l'aérodrome : 3 ft
- Code IATA : LWR


EHLW - Leuuwarden Air Base

DERNIER METAR :
  • 222125Z AUTO 10007KT 040V120 9999 OVC077 07/M02 Q1016 BLU

METARs EXPIRÉS :
  • 222055Z AUTO 09006KT 050V130 9999 SCT080 OVC230 06/M02 Q1015 BLU
  • 222025Z AUTO 08006KT 040V130 9999 SCT080 OVC260 03/M02 Q1015 BLU
  • 221955Z AUTO 08006KT 040V100 9999 NCD 04/M02 Q1015 BLU
  • 221925Z AUTO 09006KT 030V110 9999 BKN240 06/M03 Q1014 BLU
  • 221855Z AUTO 09006KT 050V110 9999 NCD 07/M03 Q1014 BLU

TAF TAF EHLW
Valide du 22 à 14h jusqu'au 23 à 02h UTC


221339Z 2214/2302 16007KT CAVOK
BECMG 2214/2216 12008KT
Pas de NOTAMs connus pour ce terrain.



MET'MAP, la Météo Aéronautique d'un coup d'oeil ! - Copyright ORBIFLY Décembre 2007 - Disclaimer

ORBIFLY MET'MAP TEAM :

Programmation & Développement : Alexandra Zaïnal
Conception & Développement : Baudouin d'Aumeries
Co-Programmation & Développement : Marc-Olivier Méhu
Soutien technique & logistique : Manuel Goepfert

Contact : metmap@orbifly.com




SOURCES & CREDITS :

   NOAA